Strona główna
METAR-TAF:

METAR-TAF

Lotnisko :

Capo Mele

Andora, Włochy

Szerokość geograficzna: 43-57N, Długość geograficzna: 008-10E, wysokość: 220 m

Aktualna obserwacja pogody

Raport powstał 1 godzina i 21 minut temu, godzina 02:55 UTC
Wiatr 17 kt od północ
Temperatura 14°C
Wilgotność 38%
Ciśnienie 1023 hPa
Widzialność 10 km lub więcej
Brak chmur poniżej 1500 m i brak chmur cumulonimbus

METAR: LIMU 060255Z 01017KT CAVOK 14/00 Q1023 RMK SKC QUK / QUL / VIS MAR 25 KM VIS MIN 9999

czas: 06:16 (04:16 UTC)


TAF: brakujący

Obserwacja i prognoza pogody dla ponad 4000 lotnisk (raport METAR i TAF).

Dostępne stacje oznaczono żółtymi i czerwonymi punktami na mapie.

Najedź kursorem aby zobaczyć nazwę stacji.

Kliknij aby zobaczyć obserwacje i prognozy pogody.

Aby zmienić mapę: kliknij na zielony przycisk z czarnym krzyżykiem, aby powiększyć; na zielony przycisk z myślnikiem, aby pomniejszyć; na zielone strzałki, aby przejść do map sąsiednich.


METAR-TAF: